Time;durP1;ratioP1;P1;durP2;ratioP2;P2;SDS_P1;SDS_P2;PMS_P1;PMS_P2;Temp;Humidity;BMP_temperature;BMP_pressure;BME280_temperature;BME280_humidity;BME280_pressure;Samples;Min_cycle;Max_cycle;Signal;HPM_P1;HPM_P2
2022/09/22 00:01:05;;;;;;;0.70;0.70;;;4.30;99.90;;;;;;5014505;28;20191;-69
2022/09/22 00:03:42;;;;;;;0.70;0.70;;;4.30;99.90;;;;;;5014344;28;20194;-69
2022/09/22 00:06:10;;;;;;;0.65;0.65;;;4.30;99.90;;;;;;5014465;28;20220;-69
2022/09/22 00:08:39;;;;;;;0.60;0.60;;;4.20;99.90;;;;;;5013091;28;20190;-69
2022/09/22 00:11:12;;;;;;;0.65;0.65;;;4.20;99.90;;;;;;5014261;28;20214;-69
2022/09/22 00:13:39;;;;;;;0.68;0.68;;;4.10;99.90;;;;;;5013983;28;20194;-69
2022/09/22 00:16:08;;;;;;;0.70;0.70;;;4.10;99.90;;;;;;5014007;28;20194;-69
2022/09/22 00:18:35;;;;;;;0.80;0.80;;;4.10;99.90;;;;;;5014135;28;20269;-68
2022/09/22 00:21:12;;;;;;;0.80;0.80;;;4.00;99.90;;;;;;5014199;28;20606;-68
2022/09/22 00:23:40;;;;;;;0.80;0.80;;;4.00;99.90;;;;;;5013727;28;20289;-68
2022/09/22 00:26:09;;;;;;;0.60;0.60;;;4.00;99.90;;;;;;5007960;28;20258;-68
2022/09/22 00:28:36;;;;;;;0.60;0.60;;;4.00;99.90;;;;;;4994386;28;20202;-69
2022/09/22 00:31:11;;;;;;;0.80;0.80;;;3.90;99.90;;;;;;4994507;28;20659;-69
2022/09/22 00:33:38;;;;;;;0.70;0.70;;;3.90;99.90;;;;;;4994172;28;20718;-68
2022/09/22 00:36:04;;;;;;;0.68;0.68;;;3.90;99.90;;;;;;4992961;28;20246;-69
2022/09/22 00:38:30;;;;;;;0.60;0.60;;;3.80;99.90;;;;;;4994198;28;20195;-69
2022/09/22 00:40:56;;;;;;;0.80;0.80;;;3.80;99.90;;;;;;4994202;28;20206;-69
2022/09/22 00:43:25;;;;;;;0.60;0.60;;;3.80;99.90;;;;;;4993954;28;20200;-69
2022/09/22 00:46:19;;;;;;;0.80;0.80;;;3.80;99.90;;;;;;4993583;28;20214;-69
2022/09/22 00:48:56;;;;;;;0.73;0.73;;;3.70;99.90;;;;;;4994783;28;20740;-69
2022/09/22 00:51:28;;;;;;;0.75;0.75;;;3.70;99.90;;;;;;4995414;28;20183;-69
2022/09/22 00:53:55;;;;;;;0.60;0.60;;;3.70;99.90;;;;;;5013555;28;20199;-69
2022/09/22 00:56:27;;;;;;;0.60;0.60;;;3.70;99.90;;;;;;5013414;28;20202;-69
2022/09/22 00:59:02;;;;;;;0.60;0.60;;;3.70;99.90;;;;;;5013517;28;20248;-69
2022/09/22 01:01:27;;;;;;;0.70;0.70;;;3.60;99.90;;;;;;5013094;28;20680;-69
2022/09/22 01:03:55;;;;;;;0.80;0.80;;;3.70;99.90;;;;;;5013499;28;20199;-69
2022/09/22 01:06:25;;;;;;;0.75;0.75;;;3.60;99.90;;;;;;5013125;28;20191;-69
2022/09/22 01:08:52;;;;;;;0.60;0.60;;;3.60;99.90;;;;;;5012223;28;20195;-69
2022/09/22 01:11:19;;;;;;;0.60;0.60;;;3.60;99.90;;;;;;5013297;28;20713;-69
2022/09/22 01:14:02;;;;;;;0.80;0.80;;;3.50;99.90;;;;;;5013426;28;20191;-69
2022/09/22 01:16:46;;;;;;;0.93;0.93;;;3.50;99.90;;;;;;5013078;28;20198;-69
2022/09/22 01:19:39;;;;;;;0.65;0.65;;;3.40;99.90;;;;;;5013328;28;20194;-69
2022/09/22 01:22:35;;;;;;;0.70;0.70;;;3.40;99.90;;;;;;5008947;28;20204;-69
2022/09/22 01:25:20;;;;;;;1.13;1.00;;;3.30;99.90;;;;;;5025014;28;20223;-69
2022/09/22 01:28:14;;;;;;;0.65;0.65;;;3.30;99.90;;;;;;4992934;28;20195;-69
2022/09/22 01:31:02;;;;;;;0.70;0.70;;;3.30;99.90;;;;;;4993398;28;20691;-69
2022/09/22 01:33:47;;;;;;;0.70;0.70;;;3.30;99.90;;;;;;4993227;28;20688;-68
2022/09/22 01:36:34;;;;;;;0.70;0.70;;;3.20;99.90;;;;;;5024964;28;20233;-69
2022/09/22 01:39:20;;;;;;;0.65;0.65;;;3.20;99.90;;;;;;4993401;28;20239;-69
2022/09/22 01:41:57;;;;;;;0.70;0.70;;;3.20;99.90;;;;;;4993223;28;20205;-69
2022/09/22 01:44:57;;;;;;;0.75;0.75;;;3.10;99.90;;;;;;4992858;28;20566;-69
2022/09/22 01:47:27;;;;;;;8.98;3.70;;;3.10;99.90;;;;;;4993094;28;20560;-69
2022/09/22 01:49:58;;;;;;;0.50;0.50;;;3.10;99.90;;;;;;5012385;28;20226;-68
2022/09/22 01:52:31;;;;;;;0.60;0.60;;;3.10;99.90;;;;;;5012769;28;20674;-69
2022/09/22 01:55:04;;;;;;;0.68;0.68;;;3.00;99.90;;;;;;5012880;28;20248;-69
2022/09/22 01:57:40;;;;;;;0.60;0.60;;;3.00;99.90;;;;;;5012602;28;20603;-69
2022/09/22 02:00:08;;;;;;;0.60;0.60;;;2.90;99.90;;;;;;5012652;28;20198;-69
2022/09/22 02:02:39;;;;;;;0.60;0.60;;;3.00;99.90;;;;;;5010417;28;20654;-69
2022/09/22 02:05:12;;;;;;;0.60;0.60;;;2.90;99.90;;;;;;5012743;28;20579;-68
2022/09/22 02:07:48;;;;;;;0.50;0.50;;;2.90;99.90;;;;;;5027562;28;20241;-68
2022/09/22 02:10:19;;;;;;;0.50;0.50;;;2.90;99.90;;;;;;5012730;28;20191;-69
2022/09/22 02:12:48;;;;;;;0.60;0.60;;;2.90;99.90;;;;;;5012699;28;20195;-69
2022/09/22 02:18:05;;;;;;;0.65;0.65;;;2.80;99.90;;;;;;5012848;28;20214;-69
2022/09/22 02:20:32;;;;;;;0.80;0.80;;;2.80;99.90;;;;;;5011166;28;20198;-69
2022/09/22 02:22:58;;;;;;;0.70;0.70;;;2.80;99.90;;;;;;5012540;28;20226;-69
2022/09/22 02:25:24;;;;;;;0.60;0.60;;;2.80;99.90;;;;;;5012269;28;20211;-69
2022/09/22 02:27:53;;;;;;;0.80;0.80;;;2.80;99.90;;;;;;5012615;28;20673;-68
2022/09/22 02:30:21;;;;;;;0.50;0.50;;;2.80;99.90;;;;;;5012480;28;20199;-69
2022/09/22 02:32:50;;;;;;;0.60;0.60;;;2.70;99.90;;;;;;5012672;28;20191;-69
2022/09/22 02:35:16;;;;;;;0.68;0.68;;;2.70;99.90;;;;;;5012542;28;20195;-69
2022/09/22 02:37:48;;;;;;;0.70;0.70;;;2.70;99.90;;;;;;5020134;28;20206;-68
2022/09/22 02:40:24;;;;;;;0.68;0.68;;;2.70;99.90;;;;;;5035932;28;20221;-69
2022/09/22 02:43:02;;;;;;;0.50;0.50;;;2.70;99.90;;;;;;5036149;28;20252;-69
2022/09/22 02:45:53;;;;;;;0.60;0.60;;;2.70;99.90;;;;;;5020156;28;20245;-69
2022/09/22 02:48:23;;;;;;;0.60;0.60;;;2.70;99.90;;;;;;5015531;28;20210;-69
2022/09/22 02:50:51;;;;;;;0.63;0.63;;;2.70;99.90;;;;;;5016070;28;20191;-69
2022/09/22 02:53:17;;;;;;;1.05;1.00;;;2.70;99.90;;;;;;5015969;28;20191;-69
2022/09/22 02:55:44;;;;;;;0.70;0.70;;;2.70;99.90;;;;;;5015577;28;20191;-69
2022/09/22 02:58:11;;;;;;;1.27;1.15;;;2.70;99.90;;;;;;5015877;28;20256;-69
2022/09/22 03:00:37;;;;;;;0.70;0.70;;;2.70;99.90;;;;;;5015412;28;20203;-68
2022/09/22 03:03:03;;;;;;;0.80;0.80;;;2.70;99.90;;;;;;5030922;28;20294;-69
2022/09/22 03:05:29;;;;;;;0.70;0.70;;;2.70;99.90;;;;;;5015454;28;20219;-69
2022/09/22 03:07:55;;;;;;;0.60;0.60;;;2.70;99.90;;;;;;5015665;28;20191;-68
2022/09/22 03:10:20;;;;;;;0.77;0.77;;;2.60;99.90;;;;;;5015503;28;20601;-69
2022/09/22 03:12:46;;;;;;;0.70;0.70;;;2.60;99.90;;;;;;5015580;28;20250;-69
2022/09/22 03:15:13;;;;;;;0.73;0.73;;;2.60;99.90;;;;;;5006631;28;20323;-69
2022/09/22 03:17:40;;;;;;;0.68;0.68;;;2.60;99.90;;;;;;4995715;28;20215;-69
2022/09/22 03:20:10;;;;;;;0.80;0.80;;;2.60;99.90;;;;;;4995832;28;20187;-69
2022/09/22 03:22:37;;;;;;;0.60;0.60;;;2.60;99.90;;;;;;4995515;28;20694;-69
2022/09/22 03:25:04;;;;;;;0.60;0.60;;;2.60;99.90;;;;;;4995665;28;20223;-69
2022/09/22 03:27:30;;;;;;;0.60;0.60;;;2.60;99.90;;;;;;4995476;28;20571;-69
2022/09/22 03:29:55;;;;;;;0.70;0.70;;;2.60;99.90;;;;;;5010668;28;20195;-69
2022/09/22 03:32:21;;;;;;;0.80;0.80;;;2.60;99.90;;;;;;4995382;28;20192;-69
2022/09/22 03:34:48;;;;;;;0.70;0.70;;;2.60;99.90;;;;;;4995553;28;20196;-69
2022/09/22 03:37:14;;;;;;;0.80;0.80;;;2.60;99.90;;;;;;4995288;28;20543;-71
2022/09/22 03:39:40;;;;;;;0.65;0.65;;;2.60;99.90;;;;;;4995403;28;20203;-68
2022/09/22 03:42:06;;;;;;;0.60;0.60;;;2.60;99.90;;;;;;5012027;28;20206;-69
2022/09/22 03:44:32;;;;;;;0.75;0.75;;;2.60;99.90;;;;;;5007280;28;20235;-69
2022/09/22 03:46:59;;;;;;;0.70;0.70;;;2.60;99.90;;;;;;4995253;28;20199;-68
2022/09/22 03:49:24;;;;;;;0.70;0.70;;;2.60;99.90;;;;;;4994562;28;20278;-69
2022/09/22 03:51:51;;;;;;;0.57;0.57;;;2.60;99.90;;;;;;4995271;28;20279;-69
2022/09/22 03:54:16;;;;;;;0.60;0.60;;;2.60;99.90;;;;;;5026661;28;20199;-69
2022/09/22 03:56:42;;;;;;;0.80;0.80;;;2.60;99.90;;;;;;5041043;28;20276;-69
2022/09/22 03:59:09;;;;;;;0.57;0.57;;;2.60;99.90;;;;;;5018067;28;20562;-69
2022/09/22 04:01:35;;;;;;;0.70;0.70;;;2.60;99.90;;;;;;5034118;28;20206;-69
2022/09/22 04:04:00;;;;;;;0.70;0.70;;;2.60;99.90;;;;;;5034303;28;20202;-69
2022/09/22 04:06:26;;;;;;;0.60;0.60;;;2.60;99.90;;;;;;5034070;28;20606;-69
2022/09/22 04:08:52;;;;;;;0.60;0.60;;;2.60;99.90;;;;;;5034299;28;20205;-68
2022/09/22 04:11:18;;;;;;;0.70;0.70;;;2.70;99.90;;;;;;5019022;28;20188;-69
2022/09/22 04:13:43;;;;;;;0.60;0.60;;;2.70;99.90;;;;;;4994680;28;20226;-69
2022/09/22 04:16:09;;;;;;;0.80;0.80;;;2.70;99.90;;;;;;4994692;28;20219;-69
2022/09/22 04:18:38;;;;;;;0.75;0.75;;;2.60;99.90;;;;;;4994647;28;20610;-69
2022/09/22 04:21:05;;;;;;;0.70;0.70;;;2.60;99.90;;;;;;4994643;28;20681;-69
2022/09/22 04:23:30;;;;;;;0.70;0.70;;;2.60;99.90;;;;;;4994087;28;20227;-68
2022/09/22 04:25:56;;;;;;;1.05;1.05;;;2.60;99.90;;;;;;4994539;28;20551;-68
2022/09/22 04:28:22;;;;;;;0.70;0.70;;;2.60;99.90;;;;;;5009443;28;20564;-68
2022/09/22 04:30:47;;;;;;;0.70;0.70;;;2.60;99.90;;;;;;5022285;28;20206;-68
2022/09/22 04:33:13;;;;;;;0.60;0.60;;;2.50;99.90;;;;;;5014073;28;20191;-69
2022/09/22 04:35:39;;;;;;;0.70;0.70;;;2.50;99.90;;;;;;5029020;28;20206;-69
2022/09/22 04:38:05;;;;;;;0.80;0.80;;;2.50;99.90;;;;;;5012664;28;20253;-69
2022/09/22 04:40:30;;;;;;;0.70;0.70;;;2.50;99.90;;;;;;5013759;28;20274;-69
2022/09/22 04:42:56;;;;;;;0.60;0.60;;;2.50;99.90;;;;;;5013893;28;20199;-69
2022/09/22 04:45:23;;;;;;;0.63;0.63;;;2.40;99.90;;;;;;4999266;28;20746;-69
2022/09/22 04:47:51;;;;;;;0.57;0.57;;;2.40;99.90;;;;;;4994116;28;20200;-69
2022/09/22 04:50:19;;;;;;;0.60;0.60;;;2.40;99.90;;;;;;4992861;28;20199;-69
2022/09/22 04:52:46;;;;;;;0.60;0.60;;;2.40;99.90;;;;;;5006780;28;20234;-69
2022/09/22 04:55:12;;;;;;;0.80;0.80;;;2.40;99.90;;;;;;5013512;28;20199;-69
2022/09/22 04:57:38;;;;;;;0.75;0.75;;;2.40;99.90;;;;;;5013355;28;20249;-69
2022/09/22 05:00:05;;;;;;;0.63;0.63;;;2.40;99.90;;;;;;5013783;28;20207;-69
2022/09/22 05:02:30;;;;;;;0.70;0.70;;;2.40;99.90;;;;;;5027648;28;20670;-68
2022/09/22 05:04:56;;;;;;;0.60;0.60;;;2.40;99.90;;;;;;5028559;28;20218;-69
2022/09/22 05:07:22;;;;;;;0.63;0.63;;;2.50;99.90;;;;;;5007123;28;20198;-69
2022/09/22 05:09:48;;;;;;;1.15;1.05;;;2.50;99.90;;;;;;4993902;28;20206;-69
2022/09/22 05:12:13;;;;;;;0.70;0.70;;;2.50;99.90;;;;;;4993808;28;20567;-69
2022/09/22 05:14:39;;;;;;;0.70;0.70;;;2.50;99.90;;;;;;4993712;28;20199;-69
2022/09/22 05:17:05;;;;;;;0.80;0.80;;;2.60;99.90;;;;;;5008953;28;20211;-69
2022/09/22 05:19:31;;;;;;;0.70;0.70;;;2.60;99.90;;;;;;5008472;28;20673;-68
2022/09/22 05:21:56;;;;;;;0.60;0.60;;;2.70;99.90;;;;;;4993350;28;20286;-69
2022/09/22 05:24:22;;;;;;;0.60;0.60;;;2.70;99.90;;;;;;4993229;28;20213;-69
2022/09/22 05:26:48;;;;;;;0.70;0.70;;;2.80;99.90;;;;;;4993577;28;20556;-70
2022/09/22 05:29:17;;;;;;;0.70;0.70;;;2.80;99.90;;;;;;4993534;28;20206;-69
2022/09/22 05:31:43;;;;;;;0.80;0.80;;;2.90;99.90;;;;;;4993237;28;20241;-69
2022/09/22 05:34:09;;;;;;;0.70;0.70;;;2.90;99.90;;;;;;5038074;28;20198;-69
2022/09/22 05:36:35;;;;;;;0.70;0.70;;;3.00;99.90;;;;;;5012756;28;20253;-69
2022/09/22 05:39:00;;;;;;;0.70;0.70;;;3.10;99.90;;;;;;5044676;28;20195;-69
2022/09/22 05:41:26;;;;;;;0.70;0.70;;;3.10;99.90;;;;;;5012817;28;20222;-69
2022/09/22 05:43:52;;;;;;;0.70;0.70;;;3.20;99.90;;;;;;5010989;28;20206;-69
2022/09/22 05:46:17;;;;;;;0.60;0.60;;;3.30;99.90;;;;;;4993244;28;20669;-69
2022/09/22 05:48:43;;;;;;;0.70;0.70;;;3.40;99.90;;;;;;5002422;28;20207;-69
2022/09/22 05:51:09;;;;;;;0.60;0.60;;;3.50;99.90;;;;;;5012890;28;20276;-69
2022/09/22 05:53:35;;;;;;;0.70;0.70;;;3.60;99.90;;;;;;5031053;28;20662;-69
2022/09/22 05:56:00;;;;;;;0.60;0.60;;;3.70;99.90;;;;;;5032393;28;20197;-69
2022/09/22 05:58:26;;;;;;;0.82;0.82;;;3.70;99.90;;;;;;5032478;28;20205;-69
2022/09/22 06:00:56;;;;;;;0.50;0.50;;;3.80;99.90;;;;;;5032495;28;20190;-68
2022/09/22 06:03:22;;;;;;;0.68;0.68;;;3.90;99.90;;;;;;5028042;28;20194;-69
2022/09/22 06:05:48;;;;;;;3.60;2.58;;;3.90;99.90;;;;;;5012728;28;20206;-68
2022/09/22 06:08:14;;;;;;;0.70;0.70;;;4.00;99.90;;;;;;5012759;28;20202;-69
2022/09/22 06:10:39;;;;;;;0.70;0.70;;;4.10;99.90;;;;;;5012631;28;20206;-69
2022/09/22 06:13:08;;;;;;;0.70;0.70;;;4.20;99.90;;;;;;5029051;28;20194;-69
2022/09/22 06:15:35;;;;;;;2.72;2.47;;;4.20;99.90;;;;;;5016318;28;20248;-70
2022/09/22 06:18:07;;;;;;;0.70;0.70;;;4.30;99.90;;;;;;5016617;28;20584;-69
2022/09/22 06:20:34;;;;;;;0.70;0.70;;;4.50;99.90;;;;;;5016290;28;20199;-69
2022/09/22 06:23:00;;;;;;;0.70;0.70;;;4.60;99.90;;;;;;5014958;28;20242;-69
2022/09/22 06:25:27;;;;;;;0.80;0.80;;;4.60;99.90;;;;;;5016476;28;20215;-70
2022/09/22 06:28:04;;;;;;;0.50;0.50;;;4.60;99.90;;;;;;5016411;28;20693;-69
2022/09/22 06:30:31;;;;;;;0.70;0.70;;;4.60;99.90;;;;;;5015080;28;20677;-69
2022/09/22 06:32:57;;;;;;;0.70;0.70;;;4.70;99.90;;;;;;5016413;28;20191;-70
2022/09/22 06:35:23;;;;;;;0.70;0.70;;;4.80;99.90;;;;;;5015993;28;20354;-69
2022/09/22 06:37:56;;;;;;;0.70;0.70;;;4.90;99.90;;;;;;5016149;28;20195;-69
2022/09/22 06:40:23;;;;;;;0.70;0.70;;;4.90;99.90;;;;;;5014660;28;20568;-69
2022/09/22 06:42:54;;;;;;;0.60;0.60;;;5.00;99.90;;;;;;5016214;28;20241;-69
2022/09/22 06:45:20;;;;;;;0.70;0.70;;;5.20;99.90;;;;;;5015363;28;20215;-70
2022/09/22 06:47:45;;;;;;;0.70;0.70;;;5.40;99.90;;;;;;5018103;28;20547;-70
2022/09/22 06:50:11;;;;;;;0.60;0.60;;;5.60;99.90;;;;;;5034472;28;20194;-70
2022/09/22 06:52:37;;;;;;;0.80;0.80;;;5.80;99.90;;;;;;5035536;28;20608;-70
2022/09/22 06:55:03;;;;;;;0.60;0.60;;;6.00;99.90;;;;;;5035609;28;20223;-69
2022/09/22 06:57:31;;;;;;;0.80;0.80;;;6.30;99.90;;;;;;5035447;28;20205;-69
2022/09/22 06:59:58;;;;;;;0.80;0.80;;;6.50;99.90;;;;;;5020499;28;20223;-69
2022/09/22 07:02:28;;;;;;;1.33;1.00;;;6.80;99.90;;;;;;4995751;28;20663;-70
2022/09/22 07:04:57;;;;;;;0.70;0.70;;;7.10;99.90;;;;;;4996077;28;20215;-70
2022/09/22 07:07:26;;;;;;;0.70;0.70;;;7.30;99.90;;;;;;4995738;28;20195;-70
2022/09/22 07:09:52;;;;;;;0.70;0.70;;;7.30;99.90;;;;;;5011086;28;20274;-70
2022/09/22 07:12:19;;;;;;;0.70;0.70;;;7.30;99.90;;;;;;5010931;28;20199;-70
2022/09/22 07:14:48;;;;;;;0.73;0.73;;;7.40;99.90;;;;;;4995777;28;20203;-70
2022/09/22 07:17:15;;;;;;;0.70;0.70;;;7.50;99.90;;;;;;4995834;28;20286;-70
2022/09/22 07:19:41;;;;;;;0.60;0.60;;;7.50;99.90;;;;;;5022388;28;20233;-70
2022/09/22 07:22:07;;;;;;;0.88;0.88;;;7.60;99.90;;;;;;5034966;28;20222;-70
2022/09/22 07:24:33;;;;;;;0.85;0.77;;;7.70;99.90;;;;;;5033832;28;20246;-69
2022/09/22 07:27:03;;;;;;;0.80;0.80;;;7.70;99.90;;;;;;5015622;28;20678;-70
2022/09/22 07:29:28;;;;;;;0.70;0.70;;;7.70;99.90;;;;;;5015130;28;20650;-69
2022/09/22 07:31:55;;;;;;;1.35;1.25;;;7.80;99.90;;;;;;5015194;28;20195;-70
2022/09/22 07:34:21;;;;;;;0.60;0.60;;;8.00;99.90;;;;;;5014945;28;20325;-70
2022/09/22 07:36:48;;;;;;;0.98;0.82;;;8.10;99.90;;;;;;5015067;28;20274;-70
2022/09/22 07:39:13;;;;;;;0.70;0.70;;;8.10;99.90;;;;;;5015160;28;20273;-70
2022/09/22 07:41:42;;;;;;;0.80;0.80;;;8.20;99.90;;;;;;5014592;28;20214;-70
2022/09/22 07:46:55;;;;;;;0.70;0.70;;;8.30;99.90;;;;;;5014926;28;20202;-70
2022/09/22 07:49:21;;;;;;;0.80;0.80;;;8.50;99.90;;;;;;5014725;28;20312;-70
2022/09/22 07:51:48;;;;;;;0.82;0.82;;;8.50;99.90;;;;;;5014687;28;20274;-71
2022/09/22 07:54:14;;;;;;;0.60;0.60;;;8.60;99.90;;;;;;5014730;28;20689;-71
2022/09/22 07:56:42;;;;;;;0.60;0.60;;;8.70;99.90;;;;;;5003847;28;20218;-72
2022/09/22 07:59:10;;;;;;;0.75;0.75;;;8.90;99.90;;;;;;4995160;28;20597;-71
2022/09/22 08:01:40;;;;;;;0.60;0.60;;;9.20;99.90;;;;;;4994721;28;20195;-71
2022/09/22 08:04:06;;;;;;;1.08;1.08;;;9.70;99.90;;;;;;5026405;28;20609;-71
2022/09/22 08:06:33;;;;;;;1.13;1.00;;;10.00;99.90;;;;;;4994902;28;20202;-71
2022/09/22 08:09:03;;;;;;;3.38;0.85;;;10.30;99.90;;;;;;5009965;28;20207;-71
2022/09/22 08:11:30;;;;;;;0.70;0.70;;;10.40;99.90;;;;;;4994577;28;20259;-70
2022/09/22 08:14:01;;;;;;;0.93;0.85;;;10.50;99.90;;;;;;4995027;28;20202;-71
2022/09/22 08:16:33;;;;;;;2.58;1.88;;;10.40;99.90;;;;;;4994653;28;20200;-71
2022/09/22 08:19:01;;;;;;;0.60;0.60;;;10.40;99.90;;;;;;4994719;28;20194;-70
2022/09/22 08:21:34;;;;;;;0.80;0.80;;;10.50;99.90;;;;;;4996537;28;20627;-70
2022/09/22 08:24:04;;;;;;;0.50;0.50;;;10.60;99.90;;;;;;5014001;28;20301;-70
2022/09/22 08:26:31;;;;;;;0.60;0.60;;;10.80;99.90;;;;;;5014024;28;20187;-70
2022/09/22 08:28:56;;;;;;;0.90;0.90;;;11.00;99.90;;;;;;5014185;28;20202;-70
2022/09/22 08:31:25;;;;;;;0.63;0.63;;;11.00;99.90;;;;;;5012696;28;20191;-70
2022/09/22 08:33:52;;;;;;;0.80;0.80;;;11.30;99.90;;;;;;5014046;28;20187;-71
2022/09/22 08:36:19;;;;;;;0.60;0.60;;;11.70;99.90;;;;;;5012342;28;20199;-70
2022/09/22 08:38:48;;;;;;;0.50;0.50;;;12.00;99.90;;;;;;5014042;28;20540;-71
2022/09/22 08:41:26;;;;;;;2.10;1.33;;;12.10;99.90;;;;;;5012625;28;20297;-71
2022/09/22 08:43:59;;;;;;;2.65;0.60;;;12.30;99.90;;;;;;5028831;28;20203;-71
2022/09/22 08:46:52;;;;;;;0.65;0.65;;;12.60;99.90;;;;;;5013676;28;20195;-71
2022/09/22 08:52:34;;;;;;;0.60;0.60;;;13.20;99.90;;;;;;5006635;28;20207;-71
2022/09/22 08:55:01;;;;;;;0.60;0.60;;;13.40;99.90;;;;;;4994244;28;20611;-71
2022/09/22 08:57:48;;;;;;;0.63;0.63;;;13.70;99.90;;;;;;4993902;28;20274;-71
2022/09/22 09:00:16;;;;;;;0.50;0.50;;;13.90;99.90;;;;;;4993983;28;20195;-72
2022/09/22 09:02:46;;;;;;;0.50;0.50;;;14.20;99.90;;;;;;4993842;28;20598;-72
2022/09/22 09:05:12;;;;;;;0.40;0.40;;;14.50;99.90;;;;;;4992615;28;20215;-72
2022/09/22 09:07:57;;;;;;;0.50;0.50;;;14.50;99.90;;;;;;4993723;28;20250;-73
2022/09/22 09:10:40;;;;;;;0.60;0.60;;;14.60;99.90;;;;;;4993798;28;20274;-72
2022/09/22 09:13:08;;;;;;;0.60;0.60;;;14.50;99.90;;;;;;4993840;28;20690;-72
2022/09/22 09:15:52;;;;;;;0.50;0.50;;;14.50;99.90;;;;;;4993469;28;20257;-72
2022/09/22 09:18:25;;;;;;;0.70;0.70;;;14.90;99.90;;;;;;5000608;28;20674;-72
2022/09/22 09:20:51;;;;;;;0.50;0.50;;;15.10;99.90;;;;;;5013267;28;20588;-72
2022/09/22 09:23:28;;;;;;;0.40;0.40;;;15.10;99.90;;;;;;5010858;28;20230;-72
2022/09/22 09:25:55;;;;;;;0.50;0.50;;;15.20;99.90;;;;;;5013140;28;20600;-71
2022/09/22 09:28:38;;;;;;;0.60;0.60;;;15.20;99.90;;;;;;5012924;28;20198;-71
2022/09/22 09:31:16;;;;;;;4.72;2.03;;;15.00;99.90;;;;;;5013236;28;20191;-72
2022/09/22 09:34:13;;;;;;;0.40;0.40;;;15.10;99.90;;;;;;5012774;28;20199;-71
2022/09/22 09:36:42;;;;;;;0.70;0.68;;;15.40;99.90;;;;;;5012247;28;20214;-71
2022/09/22 09:39:26;;;;;;;0.40;0.40;;;15.30;99.90;;;;;;5013127;28;20225;-72
2022/09/22 09:41:54;;;;;;;0.40;0.40;;;15.40;99.90;;;;;;5011727;28;20206;-71
2022/09/22 09:44:32;;;;;;;0.50;0.50;;;15.40;99.90;;;;;;5012657;28;20557;-71
2022/09/22 09:47:35;;;;;;;0.50;0.50;;;15.20;99.90;;;;;;5012925;28;20194;-71
2022/09/22 09:50:02;;;;;;;0.40;0.40;;;15.00;99.90;;;;;;5012947;28;20206;-71
2022/09/22 09:52:28;;;;;;;0.50;0.50;;;15.00;99.90;;;;;;5012844;28;20274;-71
2022/09/22 09:54:54;;;;;;;0.40;0.40;;;15.10;99.90;;;;;;5028129;28;20202;-72
2022/09/22 09:57:21;;;;;;;0.40;0.40;;;15.20;99.90;;;;;;5012779;28;20201;-70
2022/09/22 10:03:12;;;;;;;0.40;0.40;;;15.10;99.90;;;;;;5013193;28;20567;-72
2022/09/22 10:05:38;;;;;;;0.32;0.32;;;15.10;99.90;;;;;;5012564;28;20230;-71
2022/09/22 10:08:17;;;;;;;0.30;0.30;;;15.40;99.90;;;;;;5012921;28;20684;-71
2022/09/22 10:10:43;;;;;;;0.50;0.50;;;15.40;99.90;;;;;;5012728;28;20187;-71
2022/09/22 10:13:09;;;;;;;1.50;0.60;;;15.50;99.90;;;;;;5012673;28;20193;-69
2022/09/22 10:15:36;;;;;;;0.52;0.52;;;15.70;99.90;;;;;;5011214;28;20547;-69
2022/09/22 10:18:23;;;;;;;0.30;0.30;;;15.60;99.90;;;;;;5012688;28;20305;-69
2022/09/22 10:21:14;;;;;;;0.65;0.65;;;15.50;99.90;;;;;;5011190;28;20194;-69
2022/09/22 10:23:41;;;;;;;0.43;0.43;;;15.50;99.90;;;;;;5012363;28;20261;-69
2022/09/22 10:26:21;;;;;;;0.55;0.52;;;15.40;99.90;;;;;;5012486;28;20261;-70
2022/09/22 10:29:08;;;;;;;0.50;0.50;;;15.40;99.90;;;;;;5044179;28;20195;-69
2022/09/22 10:31:37;;;;;;;0.40;0.40;;;15.40;99.90;;;;;;5012438;28;20194;-70
2022/09/22 10:34:04;;;;;;;2.97;1.25;;;15.20;99.90;;;;;;5012686;28;20195;-69
2022/09/22 10:36:32;;;;;;;0.40;0.40;;;15.10;99.90;;;;;;5012165;28;20201;-69
2022/09/22 10:38:58;;;;;;;1.13;0.65;;;14.90;99.90;;;;;;5012534;28;20279;-69
2022/09/22 10:41:30;;;;;;;0.55;0.55;;;14.70;99.90;;;;;;5012269;28;20198;-69
2022/09/22 10:44:11;;;;;;;0.50;0.50;;;14.30;99.90;;;;;;5012135;28;20195;-69
2022/09/22 10:46:52;;;;;;;0.60;0.60;;;14.10;99.90;;;;;;5012324;28;20191;-69
2022/09/22 10:49:30;;;;;;;0.40;0.40;;;14.00;99.90;;;;;;5012315;28;20273;-72
2022/09/22 10:52:15;;;;;;;0.40;0.40;;;14.00;99.90;;;;;;5012551;28;20257;-72
2022/09/22 10:54:54;;;;;;;0.40;0.40;;;14.00;99.90;;;;;;5001207;28;20296;-72
2022/09/22 10:57:25;;;;;;;0.47;0.47;;;14.20;99.90;;;;;;5043899;28;20234;-69
2022/09/22 11:00:02;;;;;;;0.30;0.30;;;14.60;99.90;;;;;;5013042;28;20278;-69
2022/09/22 11:03:05;;;;;;;0.30;0.30;;;15.20;99.90;;;;;;5015554;28;20234;-69
2022/09/22 11:14:32;;;;;;;0.90;0.60;;;14.90;99.90;;;;;;5015694;28;20210;-70
2022/09/22 11:17:07;;;;;;;0.40;0.40;;;14.80;99.90;;;;;;5015521;28;20195;-70
2022/09/22 11:20:06;;;;;;;0.68;0.68;;;14.80;99.90;;;;;;5015266;28;20186;-71
2022/09/22 11:22:55;;;;;;;0.30;0.30;;;15.00;99.90;;;;;;5014992;28;20242;-71
2022/09/22 11:25:27;;;;;;;0.30;0.30;;;15.00;99.90;;;;;;5014991;28;20594;-70
2022/09/22 11:28:20;;;;;;;1.17;0.60;;;14.90;99.90;;;;;;5015372;28;20191;-71
2022/09/22 11:30:50;;;;;;;0.30;0.30;;;14.80;99.90;;;;;;5015353;28;20642;-71
2022/09/22 11:33:19;;;;;;;0.30;0.30;;;14.90;99.90;;;;;;5015251;28;20245;-72
2022/09/22 11:36:03;;;;;;;0.55;0.55;;;14.70;99.90;;;;;;5030252;28;20257;-71
2022/09/22 11:39:11;;;;;;;0.82;0.82;;;14.70;99.90;;;;;;5015009;28;20673;-71
2022/09/22 11:41:48;;;;;;;0.40;0.40;;;14.70;99.90;;;;;;5009239;28;20580;-73
2022/09/22 11:44:25;;;;;;;0.32;0.32;;;14.80;99.90;;;;;;5010151;28;20202;-71
2022/09/22 11:47:03;;;;;;;0.40;0.40;;;14.90;99.90;;;;;;4995432;28;20245;-71
2022/09/22 11:49:48;;;;;;;0.40;0.40;;;14.90;99.90;;;;;;4995452;28;20191;-70
2022/09/22 11:52:28;;;;;;;0.40;0.40;;;15.00;99.90;;;;;;4995208;28;20275;-70
2022/09/22 11:55:15;;;;;;;0.52;0.52;;;15.00;99.90;;;;;;4995284;28;20203;-72
2022/09/22 11:57:46;;;;;;;1.25;0.85;;;14.90;99.90;;;;;;4995009;28;20191;-70
2022/09/22 12:00:17;;;;;;;3.55;0.88;;;15.10;99.90;;;;;;5002625;28;20587;-72
2022/09/22 12:02:50;;;;;;;1.98;0.60;;;15.60;99.90;;;;;;5013309;28;20221;-71
2022/09/22 12:05:26;;;;;;;0.40;0.40;;;15.90;99.90;;;;;;5014514;28;20210;-72
2022/09/22 12:08:10;;;;;;;0.30;0.30;;;15.90;99.90;;;;;;5013477;28;20253;-71
2022/09/22 12:10:43;;;;;;;0.40;0.40;;;15.80;99.90;;;;;;5013825;28;20279;-70
2022/09/22 12:13:19;;;;;;;1.05;0.60;;;15.70;99.90;;;;;;5014361;28;20662;-70
2022/09/22 12:16:17;;;;;;;0.30;0.30;;;15.50;99.90;;;;;;5014254;28;20294;-70
2022/09/22 12:19:23;;;;;;;0.40;0.40;;;15.30;99.90;;;;;;5014285;28;20274;-70
2022/09/22 12:22:06;;;;;;;0.40;0.40;;;15.30;99.90;;;;;;5011013;28;20215;-70
2022/09/22 12:24:33;;;;;;;0.40;0.40;;;15.20;99.90;;;;;;5028504;28;20230;-70
2022/09/22 12:27:09;;;;;;;0.50;0.50;;;15.20;99.90;;;;;;5030408;28;20190;-70
2022/09/22 12:29:37;;;;;;;0.50;0.50;;;15.30;99.90;;;;;;5033559;28;20272;-70
2022/09/22 12:32:04;;;;;;;0.43;0.43;;;15.30;99.90;;;;;;5032575;28;20194;-71
2022/09/22 12:34:38;;;;;;;0.30;0.30;;;15.80;99.90;;;;;;5033701;28;20277;-70
2022/09/22 12:37:28;;;;;;;0.68;0.45;;;16.30;99.90;;;;;;5026459;28;20609;-71
2022/09/22 12:39:55;;;;;;;0.50;0.50;;;16.50;99.90;;;;;;5009401;28;20362;-71
2022/09/22 12:42:27;;;;;;;0.65;0.57;;;16.60;99.90;;;;;;4994156;28;20567;-71
2022/09/22 12:45:07;;;;;;;0.50;0.50;;;16.60;99.90;;;;;;4994025;28;20568;-71
2022/09/22 12:47:37;;;;;;;0.50;0.50;;;16.50;99.90;;;;;;5025638;28;20559;-70
2022/09/22 12:50:23;;;;;;;5.28;0.85;;;16.40;99.90;;;;;;5025720;28;20566;-71
2022/09/22 12:52:49;;;;;;;0.70;0.70;;;16.20;99.90;;;;;;4990186;28;20222;-70
2022/09/22 12:55:23;;;;;;;1.48;0.50;;;16.10;99.90;;;;;;5025692;28;20203;-71
2022/09/22 12:57:51;;;;;;;0.85;0.77;;;15.80;99.90;;;;;;5031665;28;20559;-70
2022/09/22 13:00:21;;;;;;;0.30;0.30;;;15.90;99.90;;;;;;5033333;28;20192;-70
2022/09/22 13:02:49;;;;;;;0.30;0.30;;;15.90;99.90;;;;;;5029971;28;20206;-72
2022/09/22 13:05:23;;;;;;;0.50;0.40;;;16.10;99.90;;;;;;5013426;28;20681;-70
2022/09/22 13:07:53;;;;;;;0.30;0.30;;;16.20;99.90;;;;;;5045289;28;20612;-70
2022/09/22 13:10:22;;;;;;;0.40;0.40;;;16.30;99.90;;;;;;5013294;28;20645;-70
2022/09/22 13:13:04;;;;;;;0.40;0.40;;;16.40;99.90;;;;;;5013527;28;20199;-70
2022/09/22 13:15:45;;;;;;;6.32;1.02;;;16.40;99.90;;;;;;5013086;28;20220;-71
2022/09/22 13:18:42;;;;;;;0.52;0.52;;;16.30;99.90;;;;;;5013166;28;20674;-72
2022/09/22 13:21:13;;;;;;;0.50;0.50;;;16.40;99.90;;;;;;5013293;28;20727;-71
2022/09/22 13:23:48;;;;;;;0.32;0.32;;;16.60;99.90;;;;;;5012291;28;20231;-70
2022/09/22 13:26:15;;;;;;;0.55;0.55;;;16.80;99.90;;;;;;5013128;28;20370;-70
2022/09/22 13:28:41;;;;;;;0.98;0.93;;;16.90;99.90;;;;;;5013092;28;20194;-70
2022/09/22 13:31:15;;;;;;;0.50;0.50;;;17.00;99.90;;;;;;5013246;28;20195;-71
2022/09/22 13:33:41;;;;;;;0.80;0.80;;;17.10;99.90;;;;;;5006266;28;20253;-71
2022/09/22 13:36:07;;;;;;;0.43;0.43;;;17.10;99.90;;;;;;4993493;28;20195;-71